Time;durP1;ratioP1;P1;durP2;ratioP2;P2;SDS_P1;SDS_P2;PMS_P1;PMS_P2;Temp;Humidity;BMP_temperature;BMP_pressure;BME280_temperature;BME280_humidity;BME280_pressure;Samples;Min_cycle;Max_cycle;Signal;HPM_P1;HPM_P2
2021/04/08 11:03:07;;;;;;;7.05;1.50;;;;;;;14.74;45.42;94821.19;5128360;27;20394;-59
2021/04/08 11:05:32;;;;;;;3.70;1.40;;;;;;;14.64;44.66;94825.91;5103054;28;20027;-56
2021/04/08 11:07:58;;;;;;;3.63;1.30;;;;;;;14.44;45.31;94823.75;5073419;28;20049;-53
2021/04/08 11:10:28;;;;;;;3.08;1.42;;;;;;;14.35;45.84;94817.75;5088966;28;20073;-56
2021/04/08 11:12:55;;;;;;;8.27;1.67;;;;;;;14.34;45.20;94816.09;5075501;28;20028;-57
2021/04/08 11:15:26;;;;;;;3.50;0.95;;;;;;;14.29;45.45;94818.47;5074501;28;20031;-58
2021/04/08 11:17:59;;;;;;;3.50;1.25;;;;;;;14.28;45.73;94814.19;5092460;28;20012;-58
2021/04/08 11:20:36;;;;;;;8.18;1.40;;;;;;;14.27;45.20;94812.56;5075177;28;20062;-58
2021/04/08 11:23:04;;;;;;;4.20;1.23;;;;;;;14.27;45.27;94819.63;5073131;28;20032;-56
2021/04/08 11:25:38;;;;;;;1.92;0.93;;;;;;;14.25;45.12;94811.94;5109307;28;20024;-57
2021/04/08 11:28:05;;;;;;;3.10;1.25;;;;;;;14.24;45.41;94807.66;5105819;28;20426;-55
2021/04/08 11:30:34;;;;;;;2.17;1.17;;;;;;;14.22;45.43;94800.94;5092412;28;20020;-57
2021/04/08 11:33:00;;;;;;;3.05;1.13;;;;;;;14.20;45.60;94795.84;5092022;28;20019;-57
2021/04/08 11:35:52;;;;;;;2.83;1.15;;;;;;;14.20;45.36;94798.47;5108401;28;20127;-58
2021/04/08 11:38:35;;;;;;;2.25;1.10;;;;;;;14.18;45.08;94796.03;5120656;28;20035;-58
2021/04/08 11:41:01;;;;;;;1.63;0.85;;;;;;;14.18;45.26;94790.75;5091405;28;20076;-56
2021/04/08 11:43:41;;;;;;;4.43;1.25;;;;;;;14.18;45.07;94789.94;5101002;28;20116;-58
2021/04/08 11:46:46;;;;;;;4.15;1.30;;;;;;;14.16;44.98;94798.00;5090943;28;20509;-58
2021/04/08 11:49:18;;;;;;;1.42;1.02;;;;;;;14.15;45.07;94785.03;5042556;28;20025;-57
2021/04/08 11:52:17;;;;;;;1.65;0.77;;;;;;;14.14;45.28;94784.22;5047498;28;20036;-58
2021/04/08 11:55:04;;;;;;;2.43;1.00;;;;;;;14.12;45.21;94773.03;5020371;28;20489;-56
2021/04/08 11:57:30;;;;;;;1.75;1.00;;;;;;;14.11;45.71;94781.91;5050105;28;20053;-58
2021/04/08 12:00:12;;;;;;;3.05;1.05;;;;;;;14.11;45.26;94781.91;5033581;28;20068;-58
2021/04/08 12:02:38;;;;;;;2.05;0.90;;;;;;;14.09;45.30;94773.41;5041579;28;20025;-58
2021/04/08 12:05:08;;;;;;;0.98;0.80;;;;;;;14.10;45.70;94779.47;5031829;28;20029;-57
2021/04/08 12:07:44;;;;;;;3.60;1.15;;;;;;;14.07;45.53;94769.31;5033691;28;20033;-58
2021/04/08 12:10:27;;;;;;;3.42;0.98;;;;;;;14.08;45.36;94776.22;5043437;28;20040;-58
2021/04/08 12:13:21;;;;;;;2.28;1.10;;;;;;;14.08;45.29;94776.22;5020062;28;20041;-58
2021/04/08 12:15:47;;;;;;;1.58;1.00;;;;;;;14.08;45.03;94770.94;4964186;28;20120;-58
2021/04/08 12:18:31;;;;;;;2.63;0.82;;;;;;;14.07;45.19;94758.78;4941788;28;20070;-58
2021/04/08 12:20:58;;;;;;;1.10;0.73;;;;;;;14.07;45.31;94764.03;4991655;28;20048;-58
2021/04/08 12:23:24;;;;;;;1.35;1.00;;;;;;;14.06;45.40;94765.03;4962595;28;20508;-58
2021/04/08 12:25:51;;;;;;;2.20;1.20;;;;;;;14.06;45.63;94765.88;4979494;28;20057;-57
2021/04/08 12:28:20;;;;;;;0.93;0.60;;;;;;;14.05;45.64;94763.41;4996242;28;20057;-58
2021/04/08 12:31:18;;;;;;;1.90;0.88;;;;;;;14.05;45.52;94758.97;4963811;28;20063;-58
2021/04/08 12:33:53;;;;;;;0.80;0.70;;;;;;;14.04;45.39;94752.06;4996617;28;20049;-58
2021/04/08 12:36:20;;;;;;;1.58;0.95;;;;;;;14.04;45.26;94748.63;4987599;28;20037;-58
2021/04/08 12:38:54;;;;;;;1.65;1.05;;;;;;;14.01;45.48;94747.97;4980565;28;20022;-58
2021/04/08 12:41:20;;;;;;;1.88;0.77;;;;;;;14.02;45.68;94746.97;4978087;28;20026;-58
2021/04/08 12:43:47;;;;;;;1.58;0.80;;;;;;;14.01;45.56;94740.06;5012181;28;20137;-58
2021/04/08 12:46:42;;;;;;;1.60;0.80;;;;;;;14.02;45.26;94746.97;4992154;28;20037;-58
2021/04/08 12:49:18;;;;;;;2.05;1.13;;;;;;;13.99;45.58;94739.44;4941533;29;20047;-58
2021/04/08 12:51:56;;;;;;;1.35;0.70;;;;;;;14.00;45.72;94735.81;4943992;28;20102;-58
2021/04/08 12:54:31;;;;;;;1.33;1.02;;;;;;;14.00;45.32;94738.44;4997470;28;20050;-58
2021/04/08 12:57:06;;;;;;;2.08;0.88;;;;;;;14.01;45.61;94737.44;4966556;28;20035;-57
2021/04/08 12:59:41;;;;;;;1.88;1.10;;;;;;;13.99;45.56;94731.56;4977453;28;20046;-58
2021/04/08 13:02:06;;;;;;;1.48;0.90;;;;;;;13.99;45.41;94730.72;4957113;28;20478;-58
2021/04/08 13:04:32;;;;;;;1.10;0.70;;;;;;;13.99;45.67;94736.81;4973976;28;20062;-58
2021/04/08 13:06:57;;;;;;;1.25;0.98;;;;;;;13.98;45.49;94723.81;4974271;28;20068;-58
2021/04/08 13:09:22;;;;;;;1.30;0.93;;;;;;;13.99;45.59;94730.72;4987683;28;20044;-59
2021/04/08 13:11:48;;;;;;;0.88;0.88;;;;;;;13.96;45.62;94725.81;5004425;28;20034;-58
2021/04/08 13:14:43;;;;;;;1.05;0.80;;;;;;;13.99;45.71;94728.09;4995675;28;20029;-58
2021/04/08 13:17:17;;;;;;;1.83;0.90;;;;;;;13.99;45.52;94728.09;4955662;28;20067;-58
2021/04/08 13:19:47;;;;;;;1.38;0.90;;;;;;;13.98;45.81;94721.19;4950684;28;20141;-57
2021/04/08 13:22:13;;;;;;;1.73;0.93;;;;;;;13.98;45.60;94721.19;4944651;28;20039;-57
2021/04/08 13:24:40;;;;;;;1.02;0.75;;;;;;;13.98;45.70;94721.19;4947874;28;20046;-58
2021/04/08 13:27:15;;;;;;;1.17;0.70;;;;;;;13.96;45.74;94724.00;5050248;28;20045;-58
2021/04/08 13:29:44;;;;;;;1.70;1.05;;;;;;;13.97;45.28;94716.94;5014473;28;20025;-58
2021/04/08 13:32:11;;;;;;;0.70;0.63;;;;;;;13.96;45.63;94721.38;5010913;28;20342;-58
2021/04/08 13:34:37;;;;;;;0.82;0.77;;;;;;;13.95;45.62;94708.41;5035012;28;20047;-58
2021/04/08 13:37:07;;;;;;;3.10;1.00;;;;;;;13.94;46.03;94707.59;5038649;28;20040;-57
2021/04/08 13:39:33;;;;;;;1.08;0.90;;;;;;;13.95;45.96;94705.78;5017898;28;20029;-58
2021/04/08 13:41:59;;;;;;;0.95;0.57;;;;;;;13.92;45.95;94704.31;5019157;28;20531;-58
2021/04/08 13:44:59;;;;;;;1.30;0.80;;;;;;;13.95;45.39;94708.41;5047679;28;20033;-58
2021/04/08 13:47:25;;;;;;;1.33;0.75;;;;;;;13.94;45.24;94701.50;4980553;28;20116;-55
2021/04/08 13:50:05;;;;;;;0.93;0.82;;;;;;;13.93;45.95;94703.31;4945571;28;20149;-58
2021/04/08 13:52:32;;;;;;;1.05;0.95;;;;;;;13.94;45.77;94698.88;4954281;28;20064;-59
2021/04/08 13:55:08;;;;;;;1.67;0.98;;;;;;;13.94;45.29;94693.59;4966910;28;20034;-59
2021/04/08 13:57:34;;;;;;;2.33;1.10;;;;;;;13.93;45.32;94692.81;4976931;28;20041;-58
2021/04/08 14:00:27;;;;;;;0.73;0.73;;;;;;;13.94;45.86;94697.06;4963766;28;20385;-57
2021/04/08 14:02:53;;;;;;;1.48;0.80;;;;;;;13.93;45.56;94686.72;4989528;28;20097;-58
2021/04/08 14:05:20;;;;;;;1.00;0.85;;;;;;;13.91;45.84;94684.28;4991381;28;20563;-57
2021/04/08 14:07:45;;;;;;;0.70;0.47;;;;;;;13.93;45.67;94673.56;4939213;28;20053;-58
2021/04/08 14:10:12;;;;;;;2.25;0.90;;;;;;;13.93;45.61;94674.38;4975016;28;20038;-59
2021/04/08 14:12:49;;;;;;;0.77;0.77;;;;;;;13.92;45.73;94678.00;4954855;28;20025;-58
2021/04/08 14:15:23;;;;;;;3.33;1.33;;;;;;;13.93;46.63;94671.75;4941172;28;20037;-63
2021/04/08 14:17:51;;;;;;;3.17;1.13;;;;;;;13.97;45.96;94665.13;4952251;28;20045;-58
2021/04/08 14:20:18;;;;;;;2.78;1.38;;;;;;;13.95;46.41;94664.50;4972236;28;20611;-58
2021/04/08 14:22:44;;;;;;;2.05;0.90;;;;;;;13.95;46.52;94663.69;5022237;28;20115;-57
2021/04/08 14:25:13;;;;;;;4.95;1.00;;;;;;;13.94;46.56;94660.25;5079320;28;20069;-58
2021/04/08 14:27:39;;;;;;;1.20;0.80;;;;;;;13.92;46.77;94654.31;5072909;28;20024;-58
2021/04/08 14:30:08;;;;;;;3.50;1.00;;;;;;;13.92;46.60;94661.41;5065266;28;20035;-58
2021/04/08 14:32:37;;;;;;;2.38;1.30;;;;;;;13.93;46.04;94661.22;5058661;28;20024;-58
2021/04/08 14:35:04;;;;;;;2.38;0.95;;;;;;;13.93;46.24;94660.44;5070754;28;20032;-55
2021/04/08 14:37:31;;;;;;;2.88;1.00;;;;;;;13.92;46.31;94656.97;5057030;28;20059;-59
2021/04/08 14:39:57;;;;;;;5.20;0.90;;;;;;;13.91;46.04;94647.47;5089552;28;20032;-59
2021/04/08 14:42:24;;;;;;;2.35;1.13;;;;;;;13.91;45.99;94644.81;5058320;28;20077;-59
2021/04/08 14:44:50;;;;;;;1.10;0.88;;;;;;;13.93;46.47;94653.34;5072511;28;20070;-58
2021/04/08 14:47:23;;;;;;;2.55;1.10;;;;;;;13.93;45.89;94645.44;5074625;28;20029;-58
2021/04/08 14:49:56;;;;;;;1.23;0.82;;;;;;;13.92;45.96;94649.06;5069555;28;20086;-59
2021/04/08 14:52:23;;;;;;;1.00;0.82;;;;;;;13.92;46.04;94643.00;5088011;28;20019;-59
2021/04/08 14:54:48;;;;;;;0.75;0.75;;;;;;;13.91;45.96;94642.19;5090943;28;20043;-58
2021/04/08 14:57:14;;;;;;;1.38;0.90;;;;;;;13.92;45.86;94643.00;5068612;28;20484;-58
2021/04/08 15:00:06;;;;;;;0.88;0.85;;;;;;;13.92;46.02;94637.75;5052163;28;20452;-58
2021/04/08 15:02:34;;;;;;;2.45;0.73;;;;;;;13.92;46.19;94640.38;5016400;28;20060;-58
2021/04/08 15:04:59;;;;;;;0.80;0.80;;;;;;;13.91;46.40;94633.47;5034025;28;20052;-58
2021/04/08 15:07:24;;;;;;;2.38;1.05;;;;;;;13.92;45.98;94627.22;5015484;28;20037;-58
2021/04/08 15:09:50;;;;;;;4.30;1.13;;;;;;;14.04;47.93;94631.03;5030388;28;20026;-58
2021/04/08 15:12:24;;;;;;;1.63;1.00;;;;;;;13.97;47.67;94630.13;5016556;28;20061;-59
2021/04/08 15:14:50;;;;;;;6.43;1.80;;;;;;;13.96;48.49;94628.47;4998698;28;20044;-57
2021/04/08 15:17:15;;;;;;;5.95;1.52;;;;;;;13.94;48.01;94626.03;5033011;28;20032;-59
2021/04/08 15:19:41;;;;;;;2.22;1.15;;;;;;;13.94;48.17;94623.41;5015490;28;20389;-58
2021/04/08 15:22:16;;;;;;;2.05;1.25;;;;;;;13.93;47.72;94616.50;5016162;28;20029;-59
2021/04/08 15:24:51;;;;;;;2.83;1.20;;;;;;;13.92;47.63;94621.94;5017038;28;20044;-59
2021/04/08 15:27:16;;;;;;;2.75;1.20;;;;;;;13.92;47.25;94606.97;5034206;28;20036;-58
2021/04/08 15:29:51;;;;;;;1.75;1.00;;;;;;;13.93;47.05;94615.69;5017225;28;20028;-59
2021/04/08 15:32:20;;;;;;;1.10;1.00;;;;;;;13.93;47.20;94618.34;5030254;28;20119;-58
2021/04/08 15:34:47;;;;;;;2.00;1.30;;;;;;;13.92;47.19;94611.44;4995406;28;20043;-58
2021/04/08 15:37:23;;;;;;;1.45;1.10;;;;;;;13.91;47.06;94608.00;5014103;28;20084;-58
2021/04/08 15:40:06;;;;;;;2.30;1.10;;;;;;;13.92;46.76;94606.16;5040169;28;20055;-58
2021/04/08 15:42:42;;;;;;;1.25;0.90;;;;;;;13.92;47.10;94614.88;5064840;28;20012;-59
2021/04/08 15:45:08;;;;;;;1.75;0.93;;;;;;;13.92;47.05;94614.06;5081972;28;20035;-57
2021/04/08 15:47:35;;;;;;;2.88;1.15;;;;;;;13.92;47.13;94606.16;5063381;28;20029;-59
2021/04/08 15:50:00;;;;;;;1.35;1.15;;;;;;;13.92;47.20;94603.53;5086831;28;20028;-58
2021/04/08 15:52:28;;;;;;;1.67;1.00;;;;;;;13.91;46.47;94610.63;5075439;28;20026;-59
2021/04/08 15:54:55;;;;;;;1.52;0.90;;;;;;;13.91;47.11;94610.63;5069595;28;20121;-58
2021/04/08 15:57:28;;;;;;;0.90;0.90;;;;;;;13.92;46.88;94608.81;5092677;28;20436;-58
2021/04/08 15:59:58;;;;;;;0.90;0.90;;;;;;;13.92;47.05;94601.72;5085528;28;20089;-59
2021/04/08 16:02:23;;;;;;;1.58;0.90;;;;;;;13.93;46.35;94605.19;5090187;28;20480;-58
2021/04/08 16:04:49;;;;;;;1.48;1.20;;;;;;;13.91;46.79;94604.53;5080830;28;20054;-59
2021/04/08 16:07:14;;;;;;;1.10;0.90;;;;;;;13.91;46.85;94605.38;5072971;28;20027;-58
2021/04/08 16:09:41;;;;;;;1.00;0.80;;;;;;;13.91;46.79;94607.16;5069010;28;20020;-58
2021/04/08 16:12:07;;;;;;;1.85;1.00;;;;;;;13.92;46.79;94601.72;5067615;28;20024;-59
2021/04/08 16:14:34;;;;;;;2.08;1.00;;;;;;;13.92;46.75;94600.91;5054765;28;20036;-58
2021/04/08 16:17:01;;;;;;;1.73;1.05;;;;;;;13.92;46.69;94596.44;5093255;28;20043;-58
2021/04/08 16:19:27;;;;;;;1.30;1.20;;;;;;;13.90;46.55;94603.72;5059995;28;20081;-59
2021/04/08 16:21:52;;;;;;;1.70;0.82;;;;;;;13.91;46.84;94594.00;5093483;28;20024;-58
2021/04/08 16:24:27;;;;;;;1.75;1.05;;;;;;;13.91;47.00;94594.84;5059057;28;20024;-57
2021/04/08 16:26:53;;;;;;;1.75;1.00;;;;;;;13.91;46.43;94600.09;5070510;28;20055;-57
2021/04/08 16:29:20;;;;;;;1.23;0.82;;;;;;;13.91;46.27;94594.84;5060379;28;20028;-59
2021/04/08 16:31:47;;;;;;;2.13;0.95;;;;;;;13.90;46.61;94595.84;5067529;28;20020;-57
2021/04/08 16:34:12;;;;;;;2.15;0.95;;;;;;;13.90;46.40;94593.19;5070280;28;20036;-58
2021/04/08 16:36:43;;;;;;;1.17;0.80;;;;;;;13.92;46.74;94593.03;5058351;28;20016;-58
2021/04/08 16:39:09;;;;;;;0.95;0.85;;;;;;;13.91;46.56;94583.50;5089978;28;20028;-58
2021/04/08 16:41:36;;;;;;;1.52;1.17;;;;;;;13.99;46.72;94580.75;5056472;28;20519;-57
2021/04/08 16:44:03;;;;;;;3.58;0.95;;;;;;;13.96;47.57;94587.19;5055017;28;20037;-54
2021/04/08 16:46:35;;;;;;;4.60;1.40;;;;;;;13.94;48.21;94588.38;5068278;28;20024;-58
2021/04/08 16:49:01;;;;;;;2.45;1.20;;;;;;;13.93;47.90;94586.75;5078631;28;20031;-56
2021/04/08 16:51:42;;;;;;;1.50;1.00;;;;;;;13.92;47.52;94580.66;5055860;28;20020;-57
2021/04/08 16:54:21;;;;;;;1.70;0.82;;;;;;;13.91;47.33;94581.69;5072615;28;20039;-58
2021/04/08 16:56:49;;;;;;;3.25;1.00;;;;;;;13.90;47.18;94582.69;5078184;28;20020;-58
2021/04/08 16:59:14;;;;;;;1.35;1.20;;;;;;;13.93;47.24;94576.25;5075200;28;20031;-55
2021/04/08 17:01:39;;;;;;;1.00;0.90;;;;;;;13.91;47.37;94579.06;5083330;28;20085;-58
2021/04/08 17:04:05;;;;;;;1.95;1.00;;;;;;;13.91;47.32;94570.34;5071226;27;79551;-55
2021/04/08 17:06:33;;;;;;;1.77;1.25;;;;;;;13.90;47.20;94572.16;5028483;28;20120;-58
2021/04/08 17:08:59;;;;;;;2.15;0.93;;;;;;;13.92;46.85;94570.16;5027609;28;20028;-58
2021/04/08 17:11:24;;;;;;;1.05;0.80;;;;;;;13.91;47.08;94573.81;5046298;28;20024;-58
2021/04/08 17:13:50;;;;;;;1.02;0.90;;;;;;;13.92;46.79;94569.34;5051556;28;20033;-58
2021/04/08 17:16:15;;;;;;;2.17;1.00;;;;;;;13.90;46.68;94564.28;5017651;28;20017;-58
2021/04/08 17:18:41;;;;;;;1.45;0.90;;;;;;;13.92;46.67;94564.88;5016112;28;20135;-57
2021/04/08 17:21:07;;;;;;;1.92;1.05;;;;;;;13.91;47.01;94565.91;5032868;28;20480;-58
2021/04/08 17:23:34;;;;;;;2.83;1.52;;;;;;;13.91;47.16;94562.44;5018211;28;20022;-58
2021/04/08 17:26:06;;;;;;;1.27;1.08;;;;;;;13.91;47.07;94563.28;5015676;28;20037;-57
2021/04/08 17:28:31;;;;;;;1.52;0.90;;;;;;;13.90;46.75;94566.06;5019472;28;20095;-58
2021/04/08 17:30:57;;;;;;;1.08;0.93;;;;;;;13.92;46.64;94564.09;5041701;28;20033;-56
2021/04/08 17:33:32;;;;;;;2.80;1.17;;;;;;;13.90;46.90;94559.00;5030086;28;20026;-58
2021/04/08 17:36:02;;;;;;;2.20;0.98;;;;;;;13.92;46.98;94569.34;5029580;28;20037;-58
2021/04/08 17:38:29;;;;;;;1.73;1.10;;;;;;;13.92;46.38;94570.16;4990180;28;20135;-58
2021/04/08 17:41:03;;;;;;;0.80;0.80;;;;;;;13.92;46.60;94567.53;5042043;28;20103;-58
2021/04/08 17:43:30;;;;;;;2.22;0.88;;;;;;;13.92;46.77;94569.34;5034276;28;20037;-58
2021/04/08 17:45:56;;;;;;;0.95;0.82;;;;;;;13.91;46.75;94565.06;5052059;28;20078;-57
2021/04/08 17:48:33;;;;;;;1.15;0.75;;;;;;;13.91;46.48;94558.00;5051233;28;20025;-58
2021/04/08 17:51:02;;;;;;;3.00;1.10;;;;;;;13.91;46.89;94560.66;5031300;28;20031;-58
2021/04/08 17:53:34;;;;;;;1.52;0.88;;;;;;;13.91;46.51;94559.81;5045115;28;20033;-59
2021/04/08 17:56:01;;;;;;;2.75;1.00;;;;;;;14.10;46.23;94553.16;5065010;28;20036;-59
2021/04/08 17:58:32;;;;;;;3.00;1.20;;;;;;;14.48;46.05;94553.00;5033046;28;20052;-59
2021/04/08 18:00:57;;;;;;;4.43;1.33;;;;;;;14.41;46.33;94557.38;5044612;28;20037;-60
2021/04/08 18:03:22;;;;;;;4.60;1.10;;;;;;;14.33;46.35;94556.50;5040683;28;20037;-54
2021/04/08 18:05:50;;;;;;;7.53;1.60;;;;;;;14.16;46.76;94557.72;5045970;28;20041;-55
2021/04/08 18:08:15;;;;;;;3.50;1.10;;;;;;;14.09;47.02;94562.06;5033990;28;20107;-55
2021/04/08 18:10:41;;;;;;;3.08;1.30;;;;;;;14.04;47.56;94564.44;5022613;28;20075;-55
2021/04/08 18:13:11;;;;;;;4.05;1.20;;;;;;;14.00;47.34;94556.91;5049413;28;20068;-54
2021/04/08 18:15:38;;;;;;;1.95;1.02;;;;;;;13.99;47.23;94554.44;5028590;28;20532;-55
2021/04/08 18:18:04;;;;;;;1.50;1.23;;;;;;;13.98;47.50;94553.66;5051281;28;20063;-54
2021/04/08 18:20:33;;;;;;;0.82;0.82;;;;;;;13.99;47.50;94551.81;5015379;28;20029;-55
2021/04/08 18:23:01;;;;;;;2.75;1.20;;;;;;;13.97;47.18;94552.00;5029317;28;20033;-54
2021/04/08 18:25:28;;;;;;;1.88;0.90;;;;;;;13.97;46.87;94548.56;5034192;28;20025;-55
2021/04/08 18:27:53;;;;;;;3.75;1.80;;;;;;;14.13;47.26;94544.91;5042875;28;20057;-61
2021/04/08 18:30:20;;;;;;;3.25;1.00;;;;;;;14.38;46.41;94548.03;5044453;28;20084;-52
2021/04/08 18:32:46;;;;;;;1.90;1.00;;;;;;;14.13;46.80;94551.00;5032087;28;20112;-54
2021/04/08 18:35:13;;;;;;;2.10;1.02;;;;;;;14.06;47.24;94542.22;5022413;28;20071;-54
2021/04/08 18:37:45;;;;;;;3.75;1.15;;;;;;;14.01;46.80;94545.38;5028128;28;20048;-54
2021/04/08 18:40:20;;;;;;;3.05;1.05;;;;;;;14.01;47.05;94547.22;5054019;28;20084;-54
2021/04/08 18:42:46;;;;;;;4.03;1.45;;;;;;;13.99;47.09;94544.75;5034076;28;20017;-53
2021/04/08 18:45:31;;;;;;;2.88;1.20;;;;;;;13.98;47.20;94553.66;5042014;28;20082;-53
2021/04/08 18:48:00;;;;;;;2.47;1.00;;;;;;;13.98;47.16;94550.19;5017125;28;20049;-52
2021/04/08 18:50:32;;;;;;;2.33;0.90;;;;;;;13.98;46.99;94548.38;5013312;28;20041;-53
2021/04/08 18:53:04;;;;;;;1.65;0.98;;;;;;;13.99;47.14;94546.56;5010304;28;20021;-54
2021/04/08 18:55:31;;;;;;;2.72;1.38;;;;;;;13.97;47.00;94545.94;4991410;28;20113;-53
2021/04/08 18:57:57;;;;;;;2.75;1.08;;;;;;;13.97;46.73;94549.38;5012517;28;20075;-53
2021/04/08 19:00:26;;;;;;;1.10;0.77;;;;;;;13.97;47.14;94554.63;5005181;28;20030;-54
2021/04/08 19:02:52;;;;;;;1.33;0.80;;;;;;;13.96;46.67;94545.09;5011818;28;20021;-53
2021/04/08 19:05:18;;;;;;;1.88;0.90;;;;;;;13.96;46.62;94539.03;5015109;28;20040;-53
2021/04/08 19:07:44;;;;;;;2.13;1.05;;;;;;;13.96;47.07;94545.09;5011508;28;20025;-54
2021/04/08 19:10:20;;;;;;;2.72;1.00;;;;;;;13.97;46.57;94545.94;5025127;28;20033;-53
2021/04/08 19:12:48;;;;;;;1.10;0.95;;;;;;;13.96;47.02;94552.19;5010529;28;20025;-51
2021/04/08 19:15:13;;;;;;;1.98;1.05;;;;;;;13.95;47.07;94554.03;5003049;28;20121;-54
2021/04/08 19:17:42;;;;;;;1.77;1.00;;;;;;;13.95;46.83;94559.28;5013163;28;20018;-54
2021/04/08 19:20:08;;;;;;;0.97;0.80;;;;;;;13.97;46.97;94553.84;5002482;28;20030;-53
2021/04/08 19:22:33;;;;;;;1.85;0.98;;;;;;;13.94;46.74;94549.75;5040752;28;20269;-54
2021/04/08 19:25:04;;;;;;;2.28;0.77;;;;;;;13.94;46.82;94549.75;5041426;28;20501;-54
2021/04/08 19:27:30;;;;;;;1.55;1.00;;;;;;;13.95;46.72;94545.28;5015553;28;20036;-53
2021/04/08 19:30:00;;;;;;;1.05;0.80;;;;;;;13.95;46.96;94553.19;4999224;28;20104;-54
2021/04/08 19:32:25;;;;;;;1.65;0.90;;;;;;;13.94;46.69;94549.75;5032271;28;20030;-54
2021/04/08 19:34:54;;;;;;;1.10;0.73;;;;;;;13.96;46.41;94554.81;4997542;28;20044;-52
2021/04/08 19:37:20;;;;;;;2.53;0.98;;;;;;;13.95;46.89;94554.03;5033103;28;20083;-54
2021/04/08 19:40:24;;;;;;;1.50;0.80;;;;;;;13.94;47.01;94557.66;4996786;28;20030;-52
2021/04/08 19:42:52;;;;;;;2.33;1.13;;;;;;;13.92;47.04;94545.66;5017771;28;20025;-54
2021/04/08 19:45:26;;;;;;;0.98;0.75;;;;;;;13.94;46.89;94547.13;4985896;28;20415;-54
2021/04/08 19:47:52;;;;;;;1.38;0.68;;;;;;;13.93;47.13;94545.47;4985455;28;20073;-51
2021/04/08 19:50:27;;;;;;;0.73;0.63;;;;;;;13.94;46.52;94547.13;4994090;28;20233;-54
2021/04/08 19:52:53;;;;;;;1.60;0.82;;;;;;;13.95;46.94;94551.38;5011156;28;20032;-51
2021/04/08 19:55:29;;;;;;;1.48;0.90;;;;;;;13.94;46.98;94549.75;5007208;28;20049;-53
2021/04/08 19:58:24;;;;;;;1.05;0.95;;;;;;;13.94;46.54;94548.91;5005946;28;20029;-54
2021/04/08 20:00:49;;;;;;;1.33;0.80;;;;;;;13.93;46.42;94548.13;4936355;28;20047;-54
2021/04/08 20:03:15;;;;;;;1.55;0.70;;;;;;;13.94;46.38;94541.03;4922783;29;20035;-54
2021/04/08 20:05:41;;;;;;;2.25;0.95;;;;;;;13.93;46.45;94539.41;4923280;29;20130;-54
2021/04/08 20:08:07;;;;;;;0.60;0.60;;;;;;;13.93;46.55;94542.03;4948437;29;20035;-54
2021/04/08 20:10:41;;;;;;;1.17;0.82;;;;;;;13.94;46.82;94535.75;4931091;28;20103;-54
2021/04/08 20:13:07;;;;;;;2.50;0.82;;;;;;;13.94;46.29;94541.84;4945981;28;20088;-53
2021/04/08 20:15:33;;;;;;;1.33;0.93;;;;;;;14.82;45.43;94535.75;4966569;28;20043;-64
2021/04/08 20:17:58;;;;;;;1.95;1.00;;;;;;;14.58;45.61;94537.72;4939906;28;20046;-58
2021/04/08 20:20:24;;;;;;;2.97;1.10;;;;;;;14.34;46.34;94541.53;4953517;28;20125;-54
2021/04/08 20:22:49;;;;;;;3.45;1.00;;;;;;;14.16;46.76;94534.84;4935685;28;20049;-51
2021/04/08 20:25:15;;;;;;;12.00;1.77;;;;;;;14.10;46.87;94540.03;4959346;28;20038;-54
2021/04/08 20:27:49;;;;;;;5.43;1.20;;;;;;;14.07;47.10;94533.31;4973612;28;20042;-55
2021/04/08 20:30:15;;;;;;;5.10;1.00;;;;;;;14.06;46.93;94534.31;4959322;28;20062;-54
2021/04/08 20:32:42;;;;;;;4.10;1.05;;;;;;;14.04;46.63;94538.13;4969358;28;20132;-54
2021/04/08 20:35:08;;;;;;;3.55;1.00;;;;;;;14.00;47.11;94530.59;4971835;28;20051;-53
2021/04/08 20:37:33;;;;;;;1.73;0.77;;;;;;;14.01;47.34;94526.97;4994071;28;20064;-54
2021/04/08 20:40:06;;;;;;;2.88;0.85;;;;;;;14.00;46.67;94524.53;5017554;28;20030;-54
2021/04/08 20:42:34;;;;;;;2.10;0.98;;;;;;;14.00;46.30;94525.31;5017642;28;20013;-54
2021/04/08 20:45:00;;;;;;;1.65;0.90;;;;;;;13.99;46.36;94523.72;5030582;28;20036;-54
2021/04/08 20:47:52;;;;;;;2.67;1.10;;;;;;;14.01;47.15;94526.16;5023423;28;20045;-54
2021/04/08 20:50:17;;;;;;;3.42;1.00;;;;;;;14.33;47.04;94518.81;4992116;28;20042;-60
2021/04/08 20:52:45;;;;;;;5.38;1.27;;;;;;;14.29;46.31;94520.19;5012081;28;20115;-54
2021/04/08 20:55:42;;;;;;;3.42;1.10;;;;;;;14.15;47.13;94511.34;4988297;28;20046;-54
2021/04/08 20:58:12;;;;;;;3.70;1.13;;;;;;;14.09;47.30;94517.31;4922281;29;20051;-53
2021/04/08 21:01:08;;;;;;;2.80;0.98;;;;;;;14.06;47.27;94508.00;4911824;29;20044;-54
2021/04/08 21:03:34;;;;;;;3.92;1.13;;;;;;;14.04;46.86;94503.94;4913514;29;20120;-54
2021/04/08 21:05:59;;;;;;;1.45;0.77;;;;;;;14.01;46.69;94500.66;4919018;29;20043;-49
2021/04/08 21:08:25;;;;;;;2.63;1.10;;;;;;;14.00;47.12;94501.66;4931424;29;20035;-54
2021/04/08 21:10:52;;;;;;;2.13;1.17;;;;;;;13.99;46.74;94501.84;4951847;29;20035;-53
2021/04/08 21:13:30;;;;;;;2.22;0.90;;;;;;;13.99;47.14;94507.94;4951782;29;20038;-53
2021/04/08 21:16:05;;;;;;;2.03;1.20;;;;;;;13.98;46.99;94503.66;4935047;29;20095;-54
2021/04/08 21:18:33;;;;;;;1.80;0.95;;;;;;;13.99;46.86;94507.09;4905765;29;20476;-54
2021/04/08 21:20:58;;;;;;;4.00;0.90;;;;;;;13.99;46.78;94507.09;4951704;29;20040;-54
2021/04/08 21:23:25;;;;;;;3.70;0.88;;;;;;;13.98;46.74;94503.66;4930360;29;20097;-54
2021/04/08 21:26:10;;;;;;;1.55;0.80;;;;;;;13.98;46.54;94501.03;4936871;29;20042;-54
2021/04/08 21:28:47;;;;;;;1.48;1.00;;;;;;;13.99;46.79;94499.19;4970603;28;20039;-54
2021/04/08 21:31:21;;;;;;;2.15;1.20;;;;;;;13.98;46.87;94508.94;4955922;28;20047;-54
2021/04/08 21:33:47;;;;;;;1.85;0.80;;;;;;;13.99;46.67;94507.09;4945984;28;20481;-54
2021/04/08 21:36:20;;;;;;;2.13;0.80;;;;;;;13.98;46.42;94501.03;4926224;28;20030;-53
2021/04/08 21:38:52;;;;;;;1.65;0.80;;;;;;;13.98;46.38;94502.81;4944376;28;20054;-53
2021/04/08 21:41:17;;;;;;;3.05;0.90;;;;;;;13.97;46.57;94496.75;4997583;28;20037;-53
2021/04/08 21:43:43;;;;;;;1.17;0.80;;;;;;;13.98;46.80;94498.41;5012093;28;20079;-54
2021/04/08 21:46:08;;;;;;;1.90;1.13;;;;;;;13.97;46.49;94502.03;5016553;28;20400;-53
2021/04/08 21:48:34;;;;;;;1.17;0.77;;;;;;;13.98;46.39;94501.03;5018188;28;20436;-54
2021/04/08 21:51:11;;;;;;;1.63;0.90;;;;;;;13.98;46.37;94502.81;5020087;28;20033;-54
2021/04/08 21:53:48;;;;;;;1.13;0.60;;;;;;;13.97;46.41;94496.75;5018116;28;20120;-55
2021/04/08 21:56:25;;;;;;;2.10;0.93;;;;;;;13.99;46.36;94499.19;5013829;28;20038;-54
2021/04/08 21:59:00;;;;;;;2.83;0.90;;;;;;;13.98;46.32;94502.81;5029675;28;20021;-54
2021/04/08 22:01:40;;;;;;;0.95;0.77;;;;;;;13.97;46.38;94491.50;5032860;28;20473;-53
2021/04/08 22:04:07;;;;;;;1.45;0.85;;;;;;;13.96;46.46;94492.50;5031627;28;20135;-54
2021/04/08 22:06:32;;;;;;;1.05;0.80;;;;;;;13.98;46.88;94490.50;5016535;28;20022;-54
2021/04/08 22:08:58;;;;;;;2.25;0.90;;;;;;;13.97;46.40;94482.81;5032734;28;20033;-53
2021/04/08 22:11:24;;;;;;;0.80;0.80;;;;;;;13.98;46.07;94485.25;5023671;28;20030;-52
2021/04/08 22:13:55;;;;;;;0.90;0.70;;;;;;;13.98;46.56;94481.78;5015919;28;20045;-54
2021/04/08 22:16:27;;;;;;;3.00;1.00;;;;;;;13.98;46.88;94473.88;5048996;28;20168;-54
2021/04/08 22:18:52;;;;;;;2.45;1.10;;;;;;;13.97;46.43;94477.53;5012740;28;20037;-53
2021/04/08 22:21:22;;;;;;;1.38;0.70;;;;;;;13.98;46.39;94479.16;5013460;28;20026;-54
2021/04/08 22:23:57;;;;;;;1.08;0.70;;;;;;;13.98;46.78;94479.16;5028975;28;20037;-54
2021/04/08 22:26:48;;;;;;;1.10;0.70;;;;;;;13.97;46.63;94475.72;5032976;28;20044;-54
2021/04/08 22:29:20;;;;;;;0.85;0.80;;;;;;;13.99;46.30;94481.63;4995244;28;20042;-54
2021/04/08 22:31:46;;;;;;;0.98;0.70;;;;;;;13.98;46.49;94479.97;4995606;28;20034;-54
2021/04/08 22:34:42;;;;;;;2.10;0.82;;;;;;;13.99;46.41;94476.34;5010783;28;20046;-54
2021/04/08 22:37:11;;;;;;;0.88;0.82;;;;;;;13.97;46.60;94475.72;4974807;28;20046;-54
2021/04/08 22:39:52;;;;;;;1.30;1.00;;;;;;;13.97;46.56;94475.72;4944884;28;20035;-52
2021/04/08 22:42:18;;;;;;;0.80;0.63;;;;;;;13.97;46.74;94478.34;4984723;28;20065;-52
2021/04/08 22:44:44;;;;;;;0.80;0.70;;;;;;;13.97;46.38;94480.97;4992337;28;20057;-54
2021/04/08 22:47:10;;;;;;;1.25;0.80;;;;;;;13.97;46.41;94473.09;4975465;28;20043;-55
2021/04/08 22:49:50;;;;;;;2.28;0.70;;;;;;;13.99;46.08;94475.53;4973418;28;20029;-55
2021/04/08 22:52:26;;;;;;;1.50;0.80;;;;;;;13.97;46.24;94473.09;4959741;28;20434;-54